createdAt,value
2016-12-15T00:00:47.273Z,5.23
2016-12-15T00:01:57.303Z,5.12
2016-12-15T00:03:07.320Z,5.13
2016-12-15T00:04:17.357Z,5.2
2016-12-15T00:05:27.678Z,5.16
2016-12-15T00:06:37.710Z,5.05
2016-12-15T00:07:47.739Z,5.13
2016-12-15T00:08:58.071Z,5.1
2016-12-15T00:10:07.811Z,5.08
2016-12-15T00:11:18.129Z,5.02
2016-12-15T00:12:27.828Z,4.97
2016-12-15T00:13:37.216Z,5.09
2016-12-15T00:14:47.256Z,4.97
2016-12-15T00:15:57.633Z,5.09
2016-12-15T00:17:07.644Z,5.08
2016-12-15T00:18:17.977Z,5.08
2016-12-15T00:19:27.678Z,5.09
2016-12-15T00:20:37.712Z,5.12
2016-12-15T00:21:47.417Z,5.16
2016-12-15T00:22:57.427Z,5.16
2016-12-15T00:24:07.761Z,5.27
2016-12-15T00:25:18.083Z,5.44
2016-12-15T00:26:28.420Z,5.26
2016-12-15T00:27:38.471Z,5.37
2016-12-15T00:28:48.476Z,5.48
2016-12-15T00:29:58.805Z,5.46
2016-12-15T00:31:08.812Z,5.51
2016-12-15T00:32:19.133Z,5.59
2016-12-15T00:33:29.141Z,5.63
2016-12-15T00:34:39.477Z,5.75
2016-12-15T00:35:49.512Z,5.78
2016-12-15T00:36:59.846Z,5.78
2016-12-15T00:38:10.176Z,5.85
2016-12-15T00:39:20.175Z,5.92
2016-12-15T00:40:30.490Z,5.99
2016-12-15T00:41:40.810Z,6.03
2016-12-15T00:42:50.532Z,6.13
2016-12-15T00:43:59.936Z,6.17
2016-12-15T00:45:09.331Z,6.18
2016-12-15T00:46:19.064Z,6.26
2016-12-15T00:47:29.072Z,6.33
2016-12-15T00:48:38.784Z,6.29
2016-12-15T00:49:48.798Z,6.34
2016-12-15T00:50:59.135Z,6.4
2016-12-15T00:52:09.153Z,6.46
2016-12-15T00:53:19.174Z,6.47
2016-12-15T00:54:29.496Z,6.54
2016-12-15T00:55:39.854Z,6.55
2016-12-15T00:56:50.173Z,6.49
2016-12-15T00:58:00.215Z,6.52
2016-12-15T00:59:10.582Z,6.43
2016-12-15T01:00:20.320Z,6.54
2016-12-15T01:01:30.651Z,6.52
2016-12-15T01:02:40.664Z,6.46
2016-12-15T01:03:50.366Z,6.55
2016-12-15T01:05:00.688Z,6.57
2016-12-15T01:06:10.702Z,6.64
2016-12-15T01:07:20.750Z,6.7
2016-12-15T01:08:31.088Z,6.73
2016-12-15T01:09:41.423Z,6.79
2016-12-15T01:10:51.761Z,6.72
2016-12-15T01:12:01.787Z,6.85
2016-12-15T01:13:12.129Z,6.76
2016-12-15T01:14:22.443Z,6.79
2016-12-15T01:15:32.771Z,6.83
2016-12-15T01:16:42.779Z,6.9
2016-12-15T01:17:52.799Z,7.05
2016-12-15T01:19:02.902Z,7
2016-12-15T01:20:12.924Z,6.95
2016-12-15T01:21:23.235Z,7.01
2016-12-15T01:22:33.267Z,7
2016-12-15T01:23:43.589Z,7.08
2016-12-15T01:24:53.601Z,6.93
2016-12-15T01:26:03.937Z,6.98
2016-12-15T01:27:14.319Z,6.95
2016-12-15T01:28:24.656Z,7.09
2016-12-15T01:29:34.671Z,7
2016-12-15T01:30:44.054Z,7.01
2016-12-15T01:31:54.072Z,6.97
2016-12-15T01:33:04.405Z,6.95
2016-12-15T01:34:14.740Z,6.97
2016-12-15T01:35:25.077Z,6.98
2016-12-15T01:36:35.413Z,6.97
2016-12-15T01:37:45.459Z,6.9
2016-12-15T01:38:55.800Z,6.86
2016-12-15T01:40:05.820Z,6.9
2016-12-15T01:41:15.839Z,6.83
2016-12-15T01:42:25.872Z,6.85
2016-12-15T01:43:35.884Z,6.8
2016-12-15T01:44:45.906Z,6.86
2016-12-15T01:45:55.957Z,6.83
2016-12-15T01:47:06.297Z,6.8
2016-12-15T01:48:16.004Z,6.82
2016-12-15T01:49:26.041Z,6.8
2016-12-15T01:50:36.070Z,6.82
2016-12-15T01:51:46.089Z,6.76
2016-12-15T01:52:55.818Z,6.73
2016-12-15T01:54:05.838Z,6.76
2016-12-15T01:55:16.153Z,6.76
2016-12-15T01:56:26.476Z,6.65
2016-12-15T01:57:36.828Z,6.76
2016-12-15T01:58:46.836Z,6.67
2016-12-15T01:59:57.201Z,6.8
2016-12-15T02:01:06.899Z,6.64
2016-12-15T02:02:16.911Z,6.76
2016-12-15T02:03:26.923Z,6.75
2016-12-15T02:04:37.250Z,6.78
2016-12-15T02:05:47.271Z,6.68
2016-12-15T02:06:57.599Z,6.65
2016-12-15T02:08:07.300Z,6.8
2016-12-15T02:09:17.301Z,6.72
2016-12-15T02:10:27.652Z,6.65
2016-12-15T02:11:37.679Z,6.65
2016-12-15T02:12:47.708Z,6.64
2016-12-15T02:13:58.029Z,6.52
2016-12-15T02:15:08.048Z,6.54
2016-12-15T02:16:18.375Z,6.54
2016-12-15T02:17:28.083Z,6.52
2016-12-15T02:18:38.103Z,6.44
2016-12-15T02:19:48.432Z,6.47
2016-12-15T02:20:58.468Z,6.42
2016-12-15T02:22:08.825Z,6.44
2016-12-15T02:23:18.835Z,6.33
2016-12-15T02:24:29.177Z,6.29
2016-12-15T02:25:39.509Z,6.28
2016-12-15T02:26:49.867Z,6.42
2016-12-15T02:28:00.237Z,6.43
2016-12-15T02:29:10.569Z,6.44
2016-12-15T02:30:20.265Z,6.34
2016-12-15T02:31:29.960Z,6.36
2016-12-15T02:32:40.294Z,6.29
2016-12-15T02:33:50.611Z,6.39
2016-12-15T02:35:00.619Z,6.37
2016-12-15T02:36:09.698Z,6.34
2016-12-15T02:37:20.016Z,6.28
2016-12-15T02:38:30.338Z,6.31
2016-12-15T02:39:40.660Z,6.24
2016-12-15T02:40:50.667Z,6.26
2016-12-15T02:42:00.369Z,6.15
2016-12-15T02:43:10.704Z,6.31
2016-12-15T02:44:20.711Z,6.2
2016-12-15T02:45:30.423Z,6.15
2016-12-15T02:46:40.135Z,6.15
2016-12-15T02:47:50.459Z,6.13
2016-12-15T02:49:00.483Z,6.07
2016-12-15T02:50:10.202Z,6.14
2016-12-15T02:51:20.221Z,6.07
2016-12-15T02:52:30.554Z,6.07
2016-12-15T02:53:40.905Z,6.17
2016-12-15T02:54:50.937Z,6.17
2016-12-15T02:56:00.027Z,6.06
2016-12-15T02:57:10.357Z,6.06
2016-12-15T02:58:20.369Z,6.1
2016-12-15T02:59:29.766Z,6.14
2016-12-15T03:00:39.465Z,6
2016-12-15T03:01:49.791Z,6.05
2016-12-15T03:33:06.397Z,3.01
2016-12-15T03:34:16.425Z,2.99
2016-12-15T03:35:26.755Z,3.14
2016-12-15T03:36:36.772Z,3.19
2016-12-15T03:37:47.090Z,3.32
2016-12-15T03:38:57.095Z,3.53
2016-12-15T03:40:06.818Z,3.63
2016-12-15T03:41:16.209Z,3.81
2016-12-15T03:42:26.212Z,4.03
2016-12-15T03:43:36.218Z,4.28
2016-12-15T03:44:46.535Z,4.33
2016-12-15T03:45:56.861Z,4.6
2016-12-15T03:47:07.185Z,4.84
2016-12-15T03:48:17.501Z,4.92
2016-12-15T03:49:27.206Z,5.12
2016-12-15T03:50:37.572Z,5.26
2016-12-15T03:51:47.895Z,5.45
2016-12-15T03:52:58.231Z,5.57
2016-12-15T03:54:07.943Z,5.67
2016-12-15T03:55:17.646Z,5.78
2016-12-15T03:56:27.656Z,5.88
2016-12-15T03:57:38.001Z,5.89
2016-12-15T03:58:48.014Z,6.05
2016-12-15T03:59:58.355Z,6.13
2016-12-15T04:01:08.682Z,6.2
2016-12-15T04:02:19.025Z,6.29
2016-12-15T04:03:29.346Z,6.34
2016-12-15T04:04:39.344Z,6.4
2016-12-15T04:05:49.694Z,6.49
2016-12-15T04:07:00.016Z,6.57
2016-12-15T04:08:10.058Z,6.52
2016-12-15T04:09:20.079Z,6.57
2016-12-15T04:10:29.785Z,6.62
2016-12-15T04:11:40.114Z,6.54
2016-12-15T04:12:50.142Z,6.67
2016-12-15T04:14:00.486Z,6.62
2016-12-15T04:15:10.197Z,6.58
2016-12-15T04:16:20.219Z,6.65
2016-12-15T04:17:30.236Z,6.61
2016-12-15T04:18:40.248Z,6.6
2016-12-15T04:19:50.581Z,6.67
2016-12-15T04:21:00.607Z,6.67
2016-12-15T04:22:10.935Z,6.8
2016-12-15T04:23:21.001Z,6.72
2016-12-15T04:24:31.363Z,6.78
2016-12-15T04:25:41.733Z,6.79
2016-12-15T04:26:51.741Z,6.78
2016-12-15T04:28:01.771Z,6.8
2016-12-15T04:29:11.488Z,6.78
2016-12-15T04:30:21.514Z,6.79
2016-12-15T04:31:31.220Z,6.76
2016-12-15T04:32:41.263Z,6.82
2016-12-15T04:33:51.574Z,6.8
2016-12-15T04:35:01.583Z,6.8
2016-12-15T04:36:11.608Z,6.79
2016-12-15T04:37:21.930Z,6.85
2016-12-15T04:38:31.952Z,6.94
2016-12-15T04:39:41.958Z,6.88
2016-12-15T04:40:52.292Z,6.86
2016-12-15T04:42:02.303Z,6.88
2016-12-15T04:43:12.024Z,6.88
2016-12-15T04:44:22.031Z,6.91
2016-12-15T04:45:31.735Z,6.85
2016-12-15T04:46:41.779Z,6.85
2016-12-15T04:47:51.795Z,6.85
2016-12-15T04:49:02.121Z,6.95
2016-12-15T04:50:12.452Z,6.93
2016-12-15T04:51:22.795Z,6.88
2016-12-15T04:52:32.488Z,6.98
2016-12-15T04:53:42.505Z,7.01
2016-12-15T04:54:52.826Z,6.98
2016-12-15T04:56:02.837Z,6.97
2016-12-15T04:57:12.534Z,7.11
2016-12-15T04:58:22.855Z,7.04
2016-12-15T04:59:32.566Z,7.04
2016-12-15T05:00:42.574Z,7.13
2016-12-15T05:01:52.892Z,7.08
2016-12-15T05:03:03.223Z,7.03
2016-12-15T05:04:12.939Z,7.04
2016-12-15T05:05:23.262Z,7.04
2016-12-15T05:06:33.307Z,7.12
2016-12-15T05:07:43.634Z,7.05
2016-12-15T05:08:53.355Z,7.03
2016-12-15T05:10:03.073Z,7.08
2016-12-15T05:11:12.474Z,7
2016-12-15T05:12:22.186Z,7.01
2016-12-15T05:13:32.511Z,7.12
2016-12-15T05:14:42.837Z,7.08
2016-12-15T05:15:53.164Z,7.08
2016-12-15T05:17:03.486Z,7.05
2016-12-15T05:18:13.870Z,7.09
2016-12-15T05:19:23.940Z,7.08
2016-12-15T05:20:33.324Z,7.08
2016-12-15T05:21:43.373Z,6.98
2016-12-15T05:22:53.389Z,6.93
2016-12-15T05:24:03.731Z,7.03
2016-12-15T05:25:13.748Z,6.9
2016-12-15T05:26:23.155Z,6.8
2016-12-15T05:27:33.178Z,6.8
2016-12-15T05:28:43.510Z,6.78
2016-12-15T05:29:53.845Z,6.68
2016-12-15T05:31:03.857Z,6.61
2016-12-15T05:32:14.189Z,6.57
2016-12-15T05:33:24.506Z,6.55
2016-12-15T05:34:34.817Z,6.46
2016-12-15T05:35:44.858Z,6.42
2016-12-15T05:36:54.872Z,6.46
2016-12-15T05:38:05.197Z,6.49
2016-12-15T05:39:15.218Z,6.37
2016-12-15T05:40:25.574Z,6.37
2016-12-15T05:41:35.892Z,6.33
2016-12-15T05:42:45.909Z,6.28
2016-12-15T05:43:56.235Z,6.37
2016-12-15T05:45:06.257Z,6.26
2016-12-15T05:46:16.613Z,6.24
2016-12-15T05:47:26.315Z,6.14
2016-12-15T05:48:36.015Z,6.1
2016-12-15T05:49:46.340Z,6.21
2016-12-15T05:50:56.666Z,6.18
2016-12-15T05:52:06.679Z,6.07
2016-12-15T05:53:16.703Z,6.15
2016-12-15T05:54:26.733Z,6.07
2016-12-15T05:55:36.457Z,6.07
2016-12-15T05:56:46.473Z,6.03
2016-12-15T05:57:56.520Z,6.06
2016-12-15T05:59:05.911Z,5.96
2016-12-15T06:00:15.923Z,5.98
2016-12-15T06:01:25.971Z,5.96
2016-12-15T06:02:36.014Z,6.02
2016-12-15T06:03:46.345Z,5.98
2016-12-15T06:04:56.381Z,6.02
2016-12-15T06:06:06.397Z,5.92
2016-12-15T06:07:16.434Z,5.98
2016-12-15T06:08:26.451Z,5.99
2016-12-15T06:09:36.479Z,5.88
2016-12-15T06:10:46.489Z,5.89
2016-12-15T06:11:56.515Z,5.91
2016-12-15T06:13:06.221Z,5.85
2016-12-15T06:14:15.624Z,5.88
2016-12-15T06:15:25.965Z,6
2016-12-15T06:16:35.998Z,5.87
2016-12-15T06:17:46.314Z,6.02
2016-12-15T06:18:56.870Z,5.98
2016-12-15T06:20:06.883Z,5.96
2016-12-15T06:21:16.899Z,5.96
2016-12-15T06:22:26.625Z,6.02
2016-12-15T06:23:36.320Z,5.87
2016-12-15T06:24:46.660Z,5.98
2016-12-15T06:25:57.014Z,6.02
2016-12-15T06:27:07.347Z,5.99
2016-12-15T06:28:17.694Z,6.06
2016-12-15T06:29:27.098Z,6
2016-12-15T06:30:37.437Z,6.02
2016-12-15T06:31:47.493Z,5.92
2016-12-15T06:32:57.807Z,6
2016-12-15T06:34:08.172Z,5.98
2016-12-15T06:35:18.512Z,6
2016-12-15T06:36:28.535Z,5.98
2016-12-15T06:37:38.869Z,5.98
2016-12-15T06:38:49.199Z,5.98
2016-12-15T06:39:59.211Z,5.91
2016-12-15T06:41:09.237Z,5.91
2016-12-15T06:42:19.563Z,5.89
2016-12-15T06:43:29.894Z,5.98
2016-12-15T06:44:40.211Z,5.81
2016-12-15T06:45:49.926Z,5.85
2016-12-15T06:46:59.639Z,5.87
2016-12-15T06:48:09.654Z,5.78
2016-12-15T06:49:19.981Z,5.84
2016-12-15T06:50:29.700Z,5.8
2016-12-15T06:51:39.732Z,5.78
2016-12-15T06:52:49.117Z,5.72
2016-12-15T06:53:59.451Z,5.77
2016-12-15T06:55:09.777Z,5.78
2016-12-15T06:56:19.803Z,5.7
2016-12-15T06:57:29.510Z,5.73
2016-12-15T06:58:39.225Z,5.73
2016-12-15T06:59:49.568Z,5.75
2016-12-15T07:00:59.922Z,5.67
2016-12-15T07:02:09.626Z,5.67
2016-12-15T07:03:19.642Z,5.7
2016-12-15T07:04:29.998Z,5.78
2016-12-15T07:05:40.010Z,5.77
2016-12-15T07:06:50.017Z,5.75
2016-12-15T07:07:59.708Z,5.7
2016-12-15T07:09:09.734Z,5.84
2016-12-15T07:10:20.063Z,5.77
2016-12-15T07:11:30.074Z,5.89
2016-12-15T07:12:40.099Z,5.8
2016-12-15T07:13:50.426Z,5.84
2016-12-15T07:15:00.127Z,5.85
2016-12-15T07:16:09.834Z,5.82
2016-12-15T07:17:20.146Z,5.95
2016-12-15T07:18:30.484Z,5.95
2016-12-15T07:19:40.501Z,5.91
2016-12-15T07:20:50.818Z,5.98
2016-12-15T07:22:00.509Z,5.91
2016-12-15T07:23:10.829Z,5.98
2016-12-15T07:24:20.231Z,6.13
2016-12-15T07:25:30.253Z,6.18
2016-12-15T07:26:40.616Z,6.37
2016-12-15T07:27:50.626Z,6.49
2016-12-15T07:29:00.650Z,6.47
2016-12-15T07:30:10.044Z,6.46
2016-12-15T07:31:20.067Z,6.54
2016-12-15T07:32:30.403Z,6.57
2016-12-15T07:33:40.426Z,6.64
2016-12-15T07:34:50.770Z,6.7
2016-12-15T07:36:00.163Z,6.68
2016-12-15T07:37:10.498Z,6.68
2016-12-15T07:38:20.531Z,6.78
2016-12-15T07:39:30.856Z,6.83
2016-12-15T07:40:40.870Z,6.82
2016-12-15T07:41:51.191Z,6.85
2016-12-15T07:43:01.218Z,7.03
2016-12-15T07:44:10.925Z,7.08
2016-12-15T07:45:20.632Z,7.05
2016-12-15T07:46:30.328Z,7.09
2016-12-15T07:47:40.046Z,7.05
2016-12-15T07:48:50.357Z,7.16
2016-12-15T07:50:00.374Z,7.21
2016-12-15T07:51:10.704Z,7.22
2016-12-15T07:52:20.741Z,7.31
2016-12-15T07:53:30.453Z,7.19
2016-12-15T07:54:40.475Z,7.29
2016-12-15T07:55:50.791Z,7.4
2016-12-15T07:57:01.121Z,7.37
2016-12-15T07:58:11.456Z,7.39
2016-12-15T07:59:21.163Z,7.41
2016-12-15T08:00:31.159Z,7.47
2016-12-15T08:01:41.481Z,7.48
2016-12-15T08:02:51.493Z,7.52
2016-12-15T08:04:01.829Z,7.52
2016-12-15T08:05:12.166Z,7.59
2016-12-15T08:06:22.493Z,7.63
2016-12-15T08:07:32.844Z,7.68
2016-12-15T08:08:42.862Z,7.68
2016-12-15T08:09:52.580Z,7.73
2016-12-15T08:11:02.955Z,7.86
2016-12-15T08:12:13.287Z,7.83
2016-12-15T08:13:23.314Z,7.88
2016-12-15T08:14:33.667Z,7.92
2016-12-15T08:15:43.999Z,7.98
2016-12-15T08:16:54.349Z,7.96
2016-12-15T08:18:04.706Z,8.06
2016-12-15T08:19:14.407Z,8.07
2016-12-15T08:20:24.734Z,8.13
2016-12-15T08:21:34.776Z,8.25
2016-12-15T08:22:44.492Z,8.21
2016-12-15T08:23:54.499Z,8.25
2016-12-15T08:25:04.226Z,8.21
2016-12-15T08:26:14.588Z,8.31
2016-12-15T08:27:24.622Z,8.31
2016-12-15T08:28:34.957Z,8.36
2016-12-15T08:29:45.008Z,8.42
2016-12-15T08:30:55.346Z,8.42
2016-12-15T08:32:05.362Z,8.4
2016-12-15T08:33:15.728Z,8.53
2016-12-15T08:34:26.060Z,8.5
2016-12-15T08:35:36.406Z,8.43
2016-12-15T08:36:46.729Z,8.57
2016-12-15T08:37:57.071Z,8.54
2016-12-15T08:39:07.439Z,8.65
2016-12-15T08:40:17.768Z,8.65
2016-12-15T08:41:28.091Z,8.76
2016-12-15T08:42:38.418Z,8.86
2016-12-15T08:43:48.451Z,8.95
2016-12-15T08:44:58.790Z,9
2016-12-15T08:46:09.107Z,8.92
2016-12-15T08:47:19.136Z,9.04
2016-12-15T08:48:29.157Z,9.12
2016-12-15T08:49:39.493Z,9.2
2016-12-15T08:50:49.495Z,9.16
2016-12-15T08:51:59.523Z,8.98
2016-12-15T08:53:09.538Z,8.92
2016-12-15T08:54:19.550Z,8.9
2016-12-15T08:55:29.578Z,8.89
2016-12-15T08:56:39.630Z,8.82
2016-12-15T08:57:49.326Z,8.86
2016-12-15T08:58:59.348Z,8.76
2016-12-15T09:00:09.707Z,8.92
2016-12-15T09:01:20.075Z,8.92
2016-12-15T09:02:30.423Z,8.97
2016-12-15T09:03:40.749Z,9.04
2016-12-15T09:04:51.087Z,9.08
2016-12-15T09:06:01.118Z,9.03
2016-12-15T09:07:11.447Z,8.97
2016-12-15T09:08:21.483Z,9.11
2016-12-15T09:09:31.801Z,9.17
2016-12-15T09:10:42.163Z,9.2
2016-12-15T09:11:52.501Z,9.27
2016-12-15T09:13:02.213Z,9.37
2016-12-15T09:14:12.533Z,9.42
2016-12-15T09:15:22.550Z,9.44
2016-12-15T09:16:32.265Z,9.48
2016-12-15T09:17:42.291Z,9.66
2016-12-15T09:18:52.629Z,9.55
2016-12-15T09:20:02.660Z,9.57
2016-12-15T09:21:12.985Z,9.57
2016-12-15T09:22:22.989Z,9.66
2016-12-15T09:23:33.320Z,9.55
2016-12-15T09:24:43.667Z,9.63
2016-12-15T09:25:53.684Z,9.67
2016-12-15T09:27:04.030Z,9.67
2016-12-15T09:28:14.362Z,9.72
2016-12-15T09:29:24.062Z,9.71
2016-12-15T09:30:34.380Z,9.82
2016-12-15T09:31:44.382Z,9.75
2016-12-15T09:32:54.416Z,9.88
2016-12-15T09:34:04.759Z,9.93
2016-12-15T09:35:14.782Z,9.93
2016-12-15T09:36:24.509Z,9.92
2016-12-15T09:37:34.865Z,9.93
2016-12-15T09:38:44.883Z,9.84
2016-12-15T09:39:54.909Z,9.93
2016-12-15T09:41:04.632Z,10.02
2016-12-15T09:42:14.974Z,10.02
2016-12-15T09:43:25.292Z,10.17
2016-12-15T09:44:35.310Z,10.29
2016-12-15T09:45:45.639Z,10.26
2016-12-15T09:46:56.026Z,10.38
2016-12-15T09:48:06.071Z,10.35
2016-12-15T09:49:16.404Z,10.35
2016-12-15T09:50:26.421Z,10.33
2016-12-15T09:51:36.451Z,10.36
2016-12-15T09:52:46.472Z,10.36
2016-12-15T09:53:56.823Z,10.35
2016-12-15T09:55:06.858Z,10.36
2016-12-15T09:56:16.885Z,10.39
2016-12-15T09:57:26.902Z,10.42
2016-12-15T09:58:37.222Z,10.46
2016-12-15T09:59:47.554Z,10.49
2016-12-15T10:00:57.876Z,10.66
2016-12-15T10:02:07.587Z,10.7
2016-12-15T10:03:17.614Z,10.72
2016-12-15T10:04:27.939Z,10.83
2016-12-15T10:05:38.282Z,10.77
2016-12-15T10:06:48.619Z,10.77
2016-12-15T10:07:58.659Z,10.77
2016-12-15T10:09:09.030Z,10.77
2016-12-15T10:10:18.749Z,10.77
2016-12-15T10:11:27.839Z,10.75
2016-12-15T10:12:38.207Z,10.77
2016-12-15T10:13:47.609Z,10.65
2016-12-15T10:14:57.352Z,10.63
2016-12-15T10:16:07.674Z,10.63
2016-12-15T10:17:17.715Z,10.65
2016-12-15T10:18:28.041Z,10.72
2016-12-15T10:19:38.064Z,10.72
2016-12-15T10:20:48.400Z,10.85
2016-12-15T10:21:58.733Z,10.83
2016-12-15T10:23:08.759Z,10.84
2016-12-15T10:24:18.490Z,10.73
2016-12-15T10:25:28.831Z,10.76
2016-12-15T10:26:39.179Z,10.77
2016-12-15T10:27:49.516Z,10.7
2016-12-15T10:28:59.847Z,10.7
2016-12-15T10:30:09.874Z,10.75
2016-12-15T10:31:19.899Z,10.67
2016-12-15T10:32:29.927Z,10.77
2016-12-15T10:33:40.295Z,10.76
2016-12-15T10:34:50.391Z,10.77
2016-12-15T10:36:00.459Z,10.7
2016-12-15T10:37:10.489Z,10.8
2016-12-15T10:38:20.221Z,10.79
2016-12-15T10:39:30.545Z,10.85
2016-12-15T10:40:40.556Z,10.9
2016-12-15T10:41:50.578Z,10.88
2016-12-15T10:43:00.953Z,10.97
2016-12-15T10:44:11.294Z,10.97
2016-12-15T10:45:21.315Z,11.03
2016-12-15T10:46:31.351Z,11.15
2016-12-15T10:47:41.375Z,11.09
2016-12-15T10:48:51.113Z,11.2
2016-12-15T10:50:01.131Z,11.1
2016-12-15T10:51:11.508Z,11.3
2016-12-15T10:52:21.861Z,11.16
2016-12-15T10:53:31.922Z,11.18
2016-12-15T10:54:42.247Z,11.2
2016-12-15T10:55:52.580Z,11.27
2016-12-15T10:57:02.295Z,11.18
2016-12-15T10:58:12.014Z,11.21
2016-12-15T10:59:21.740Z,11.31
2016-12-15T11:00:31.762Z,11.35
2016-12-15T11:01:42.111Z,11.43
2016-12-15T11:02:52.155Z,11.39
2016-12-15T11:04:01.862Z,11.41
2016-12-15T11:05:12.208Z,11.33
2016-12-15T11:06:22.545Z,11.28
2016-12-15T11:07:32.884Z,11.34
2016-12-15T11:08:42.594Z,11.3
2016-12-15T11:09:52.617Z,11.26
2016-12-15T11:11:02.668Z,11.26
2016-12-15T11:12:12.380Z,11.2
2016-12-15T11:13:22.405Z,11.31
2016-12-15T11:14:32.434Z,11.43
2016-12-15T11:15:42.765Z,11.33
2016-12-15T11:16:52.472Z,11.43
2016-12-15T11:18:02.817Z,11.48
2016-12-15T11:19:12.839Z,11.45
2016-12-15T11:20:22.871Z,11.53
2016-12-15T11:21:32.891Z,11.51
2016-12-15T11:22:42.911Z,11.45
2016-12-15T11:23:52.947Z,11.42
2016-12-15T11:25:03.313Z,11.41
2016-12-15T11:26:13.025Z,11.41
2016-12-15T11:27:23.056Z,11.35
2016-12-15T11:28:33.067Z,11.33
2016-12-15T11:29:43.404Z,11.26
2016-12-15T11:30:53.124Z,11.28
2016-12-15T11:32:03.493Z,11.2
2016-12-15T11:33:13.224Z,11.2
2016-12-15T11:34:23.270Z,11.26
2016-12-15T11:35:33.604Z,11.16
2016-12-15T11:36:43.946Z,11.13
2016-12-15T11:37:53.974Z,11.12
2016-12-15T11:39:04.350Z,11.13
2016-12-15T11:40:14.695Z,11.1
2016-12-15T11:41:25.162Z,11.06
2016-12-15T11:42:35.526Z,11.06
2016-12-15T11:43:45.633Z,11.05
2016-12-15T11:44:55.990Z,10.97
2016-12-15T11:46:05.711Z,11.06
2016-12-15T11:47:16.360Z,11.06
2016-12-15T11:48:26.817Z,11.16
2016-12-15T11:49:37.153Z,11.13
2016-12-15T11:50:47.194Z,11.1
2016-12-15T11:51:57.393Z,11.15
2016-12-15T11:53:07.467Z,11.09
2016-12-15T11:54:17.840Z,11
2016-12-15T11:55:28.186Z,10.92
2016-12-15T11:56:38.363Z,10.94
2016-12-15T11:57:48.724Z,10.88
2016-12-15T11:58:59.067Z,10.88
2016-12-15T12:00:09.127Z,10.85
2016-12-15T12:01:19.850Z,10.77
2016-12-15T12:02:29.905Z,10.76
2016-12-15T12:03:39.922Z,10.77
2016-12-15T12:04:50.262Z,10.75
2016-12-15T12:06:00.329Z,10.63
2016-12-15T12:07:10.369Z,10.63
2016-12-15T12:08:20.393Z,10.51
2016-12-15T12:09:30.630Z,10.47
2016-12-15T12:10:40.985Z,10.46
2016-12-15T12:11:51.021Z,10.44
2016-12-15T12:13:01.424Z,10.47
2016-12-15T12:14:11.802Z,10.54
2016-12-15T12:15:22.196Z,10.47
2016-12-15T12:16:32.665Z,10.44
2016-12-15T12:17:42.086Z,10.38
2016-12-15T12:18:52.106Z,10.41
2016-12-15T12:20:02.493Z,10.44
2016-12-15T12:21:12.534Z,10.42
2016-12-15T12:22:22.552Z,10.38
2016-12-15T12:23:32.912Z,10.32
2016-12-15T12:24:43.017Z,10.25
2016-12-15T12:25:53.077Z,10.25
2016-12-15T12:27:03.122Z,10.15
2016-12-15T12:28:13.611Z,10.21
2016-12-15T12:29:23.389Z,10.11
2016-12-15T12:30:33.934Z,10.08
2016-12-15T12:31:44.007Z,10.02
2016-12-15T12:32:54.349Z,9.98
2016-12-15T12:34:04.372Z,9.93
2016-12-15T12:35:14.423Z,9.81
2016-12-15T12:36:24.755Z,9.84
2016-12-15T12:37:35.092Z,9.74
2016-12-15T12:38:45.124Z,9.67
2016-12-15T12:39:55.485Z,9.75
2016-12-15T12:41:05.517Z,9.75
2016-12-15T12:42:15.874Z,9.67
2016-12-15T12:43:25.599Z,9.62
2016-12-15T12:44:35.946Z,9.62
2016-12-15T12:45:46.324Z,9.64
2016-12-15T12:46:56.660Z,9.62
2016-12-15T12:48:06.982Z,9.53
2016-12-15T12:49:17.322Z,9.56
2016-12-15T12:50:27.350Z,9.6
2016-12-15T12:51:37.706Z,9.59
2016-12-15T12:52:48.073Z,9.55
2016-12-15T12:53:58.540Z,9.5
2016-12-15T12:55:08.572Z,9.53
2016-12-15T12:56:18.906Z,9.63
2016-12-15T12:57:28.931Z,9.55
2016-12-15T12:58:38.988Z,9.6
2016-12-15T12:59:49.018Z,9.63
2016-12-15T13:00:59.159Z,9.57
2016-12-15T13:02:09.494Z,9.67
2016-12-15T13:03:19.839Z,9.53
2016-12-15T13:04:29.876Z,9.59
2016-12-15T13:05:39.904Z,9.63
2016-12-15T13:06:49.938Z,9.52
2016-12-15T13:07:59.966Z,9.5
2016-12-15T13:09:09.689Z,9.42
2016-12-15T13:10:19.833Z,9.38
2016-12-15T13:11:30.191Z,9.42
2016-12-15T13:12:40.562Z,9.3
2016-12-15T13:13:50.927Z,9.26
2016-12-15T13:15:01.298Z,9.3
2016-12-15T13:16:11.022Z,9.26
2016-12-15T13:17:20.990Z,9.24
2016-12-15T13:18:31.038Z,9.2
2016-12-15T13:19:40.766Z,9.24
2016-12-15T13:20:50.802Z,9.2
2016-12-15T13:22:01.187Z,9.23
2016-12-15T13:23:11.620Z,9.09
2016-12-15T13:24:21.667Z,9.16
2016-12-15T13:25:31.386Z,9.11
2016-12-15T13:26:41.422Z,9.14
2016-12-15T13:27:51.482Z,9.03
2016-12-15T13:29:01.598Z,9.11
2016-12-15T13:30:11.983Z,9.01
2016-12-15T13:31:22.312Z,9.05
2016-12-15T13:32:32.644Z,9.08
2016-12-15T13:33:43.046Z,9.05
2016-12-15T13:34:53.071Z,9.01
2016-12-15T13:36:02.780Z,9.05
2016-12-15T13:37:13.129Z,8.92
2016-12-15T13:38:23.160Z,8.9
2016-12-15T13:39:33.205Z,8.97
2016-12-15T13:40:43.723Z,8.98
2016-12-15T13:41:53.430Z,8.9
2016-12-15T13:43:03.208Z,8.85
2016-12-15T13:44:13.559Z,8.8
2016-12-15T13:45:23.915Z,8.79
2016-12-15T13:46:33.688Z,8.77
2016-12-15T13:47:43.481Z,8.83
2016-12-15T13:48:53.852Z,8.77
2016-12-15T13:50:04.195Z,8.69
2016-12-15T13:51:14.219Z,8.69
2016-12-15T13:52:24.255Z,8.71
2016-12-15T13:53:34.282Z,8.72
2016-12-15T13:54:44.379Z,8.69
2016-12-15T13:55:54.716Z,8.65
2016-12-15T13:57:04.758Z,8.69
2016-12-15T13:58:15.089Z,8.71
2016-12-15T13:59:25.119Z,8.6
2016-12-15T14:00:35.133Z,8.54
2016-12-15T14:01:44.872Z,8.54
2016-12-15T14:02:54.905Z,8.58
2016-12-15T14:04:04.638Z,8.58
2016-12-15T14:05:14.675Z,8.42
2016-12-15T14:06:25.012Z,8.44
2016-12-15T14:07:35.038Z,8.47
2016-12-15T14:08:45.394Z,8.49
2016-12-15T14:09:55.742Z,8.4
2016-12-15T14:11:06.083Z,8.4
2016-12-15T14:12:16.420Z,8.47
2016-12-15T14:13:25.841Z,8.49
2016-12-15T14:14:36.194Z,8.4
2016-12-15T14:15:46.535Z,8.44
2016-12-15T14:16:56.574Z,8.39
2016-12-15T14:18:06.281Z,8.44
2016-12-15T14:19:15.997Z,8.4
2016-12-15T14:20:26.339Z,8.34
2016-12-15T14:21:36.060Z,8.44
2016-12-15T14:22:46.067Z,8.34
2016-12-15T14:23:56.086Z,8.26
2016-12-15T14:25:06.420Z,8.31
2016-12-15T14:26:16.763Z,8.28
2016-12-15T14:27:26.793Z,8.25
2016-12-15T14:28:36.204Z,8.21
2016-12-15T14:29:46.553Z,8.21
2016-12-15T14:30:56.587Z,8.19
2016-12-15T14:32:06.675Z,8.14
2016-12-15T14:33:17.002Z,8.11
2016-12-15T14:34:27.012Z,8.19
2016-12-15T14:35:37.047Z,8.09
2016-12-15T14:36:47.403Z,8.17
2016-12-15T14:37:57.439Z,8.01
2016-12-15T14:39:07.197Z,8.04
2016-12-15T14:40:17.239Z,7.96
2016-12-15T14:41:26.954Z,7.93
2016-12-15T14:42:36.670Z,7.95
2016-12-15T14:43:46.706Z,7.92
2016-12-15T14:44:56.728Z,8.01
2016-12-15T14:46:07.076Z,8.04
2016-12-15T14:47:17.398Z,8.01
2016-12-15T14:48:27.791Z,8.03
2016-12-15T14:49:37.826Z,8.04
2016-12-15T14:50:47.870Z,7.95
2016-12-15T14:51:58.222Z,7.92
2016-12-15T14:53:08.572Z,7.96
2016-12-15T14:54:18.909Z,7.86
2016-12-15T14:55:28.940Z,7.89
2016-12-15T14:56:38.968Z,7.89
2016-12-15T14:57:48.673Z,7.91
2016-12-15T14:58:58.411Z,7.88
2016-12-15T15:00:08.769Z,7.92
2016-12-15T15:01:18.811Z,7.85
2016-12-15T15:02:28.833Z,7.83
2016-12-15T15:03:39.223Z,7.8
2016-12-15T15:04:48.934Z,7.85
2016-12-15T15:05:58.972Z,7.88
2016-12-15T15:07:09.016Z,7.8
2016-12-15T15:08:19.048Z,7.78
2016-12-15T15:09:29.093Z,7.78
2016-12-15T15:10:39.102Z,7.7
2016-12-15T15:11:49.436Z,7.74
2016-12-15T15:12:59.785Z,7.71
2016-12-15T15:14:10.188Z,7.68
2016-12-15T15:15:20.528Z,7.67
2016-12-15T15:16:30.596Z,7.64
2016-12-15T15:17:40.948Z,7.61
2016-12-15T15:18:50.676Z,7.56
2016-12-15T15:20:00.753Z,7.64
2016-12-15T15:21:10.797Z,7.61
2016-12-15T15:22:20.536Z,7.63
2016-12-15T15:23:30.253Z,7.68
2016-12-15T15:24:40.291Z,7.56
2016-12-15T15:25:50.036Z,7.47
2016-12-15T15:27:00.070Z,7.39
2016-12-15T15:28:10.111Z,7.4
2016-12-15T15:29:20.124Z,7.4
2016-12-15T15:30:30.138Z,7.36
2016-12-15T15:31:40.157Z,7.36
2016-12-15T15:32:50.189Z,7.36
2016-12-15T15:34:00.535Z,7.22
2016-12-15T15:35:10.548Z,7.22
2016-12-15T15:36:20.283Z,7.33
2016-12-15T15:37:30.313Z,7.27
2016-12-15T15:38:40.657Z,7.21
2016-12-15T15:39:51.006Z,7.27
2016-12-15T15:41:01.030Z,7.21
2016-12-15T15:42:10.741Z,7.33
2016-12-15T15:43:21.076Z,7.33
2016-12-15T15:44:31.429Z,7.34
2016-12-15T15:45:41.472Z,7.3
2016-12-15T15:46:51.833Z,7.34
2016-12-15T15:48:01.860Z,7.4
2016-12-15T15:49:11.899Z,7.34
2016-12-15T15:50:22.243Z,7.37
2016-12-15T15:51:32.581Z,7.34
2016-12-15T15:52:42.619Z,7.34
2016-12-15T15:53:52.640Z,7.36
2016-12-15T15:55:02.698Z,7.33
2016-12-15T15:56:12.733Z,7.34
2016-12-15T15:57:22.744Z,7.33
2016-12-15T15:58:32.748Z,7.33
2016-12-15T15:59:43.108Z,7.31
2016-12-15T16:00:53.467Z,7.36
2016-12-15T16:02:03.188Z,7.37